createdAt,value
2018-12-29T00:01:54.659Z,31.23
2018-12-29T00:06:55.750Z,31.43
2018-12-29T00:11:56.861Z,29.13
2018-12-29T00:16:58.051Z,31.20
2018-12-29T00:21:59.251Z,31.57
2018-12-29T00:27:00.351Z,30.10
2018-12-29T00:32:01.471Z,30.70
2018-12-29T00:37:02.571Z,29.57
2018-12-29T00:42:03.675Z,26.47
2018-12-29T00:47:04.811Z,27.33
2018-12-29T00:52:05.919Z,25.63
2018-12-29T00:57:07.011Z,24.13
2018-12-29T01:02:08.124Z,27.37
2018-12-29T01:07:09.227Z,25.73
2018-12-29T01:12:10.540Z,26.10
2018-12-29T01:17:11.640Z,28.63
2018-12-29T01:22:12.735Z,28.70
2018-12-29T01:27:13.842Z,27.30
2018-12-29T01:32:14.949Z,25.63
2018-12-29T01:37:16.023Z,24.93
2018-12-29T01:42:17.159Z,23.77
2018-12-29T01:47:18.327Z,22.53
2018-12-29T01:52:19.422Z,22.10
2018-12-29T01:57:20.527Z,20.80
2018-12-29T02:02:21.651Z,20.47
2018-12-29T02:07:22.775Z,21.40
2018-12-29T02:12:23.876Z,23.10
2018-12-29T02:17:25.015Z,22.97
2018-12-29T02:22:26.311Z,23.50
2018-12-29T02:27:27.408Z,22.37
2018-12-29T02:32:28.498Z,22.17
2018-12-29T02:37:29.590Z,23.37
2018-12-29T02:42:30.684Z,22.43
2018-12-29T02:47:31.819Z,21.03
2018-12-29T02:52:32.907Z,22.03
2018-12-29T02:57:34.003Z,21.67
2018-12-29T03:02:35.119Z,20.10
2018-12-29T03:07:36.232Z,17.93
2018-12-29T03:12:38.791Z,19.53
2018-12-29T03:17:39.890Z,19.80
2018-12-29T03:22:40.979Z,19.80
2018-12-29T03:27:42.076Z,17.47
2018-12-29T03:32:43.172Z,19.43
2018-12-29T03:37:44.275Z,19.17
2018-12-29T03:42:45.475Z,19.43
2018-12-29T03:47:46.593Z,21.13
2018-12-29T03:52:47.990Z,20.17
2018-12-29T03:57:49.096Z,20.43
2018-12-29T04:02:50.214Z,20.13
2018-12-29T04:07:51.307Z,20.43
2018-12-29T04:12:52.506Z,21.63
2018-12-29T04:17:53.605Z,20.37
2018-12-29T04:22:54.694Z,20.70
2018-12-29T04:27:55.791Z,20.90
2018-12-29T04:32:56.888Z,19.23
2018-12-29T04:37:57.976Z,19.50
2018-12-29T04:42:59.085Z,19.77
2018-12-29T04:48:00.197Z,19.83
2018-12-29T04:53:01.306Z,20.07
2018-12-29T04:58:02.403Z,20.93
2018-12-29T05:03:03.516Z,20.07
2018-12-29T05:08:04.607Z,21.00
2018-12-29T05:13:05.700Z,21.47
2018-12-29T05:18:06.799Z,19.33
2018-12-29T05:23:07.894Z,20.80
2018-12-29T05:28:08.991Z,21.73
2018-12-29T05:33:10.086Z,19.53
2018-12-29T05:38:11.182Z,20.83
2018-12-29T05:43:12.286Z,20.77
2018-12-29T05:48:13.395Z,22.17
2018-12-29T05:53:14.494Z,22.10
2018-12-29T05:58:15.596Z,29.53
2018-12-29T06:03:16.734Z,27.73
2018-12-29T06:08:17.829Z,23.27
2018-12-29T06:13:18.944Z,22.23
2018-12-29T06:18:20.043Z,25.00
2018-12-29T06:23:21.215Z,22.67
2018-12-29T06:28:22.394Z,26.03
2018-12-29T06:33:23.524Z,22.73
2018-12-29T06:38:24.613Z,22.20
2018-12-29T06:43:25.707Z,19.97
2018-12-29T06:48:26.818Z,21.23
2018-12-29T06:53:28.262Z,23.23
2018-12-29T06:58:29.359Z,22.87
2018-12-29T07:03:30.498Z,21.77
2018-12-29T07:08:31.594Z,22.77
2018-12-29T07:13:32.687Z,21.40
2018-12-29T07:18:35.028Z,22.60
2018-12-29T07:23:36.123Z,20.30
2018-12-29T07:28:37.241Z,21.73
2018-12-29T07:33:38.432Z,21.33
2018-12-29T07:38:39.541Z,20.23
2018-12-29T07:43:40.638Z,21.73
2018-12-29T07:48:41.765Z,24.33
2018-12-29T07:53:42.864Z,22.53
2018-12-29T07:58:44.027Z,21.73
2018-12-29T08:03:45.131Z,21.60
2018-12-29T08:08:46.234Z,22.50
2018-12-29T08:13:47.429Z,20.93
2018-12-29T08:18:48.524Z,21.70
2018-12-29T08:23:49.624Z,20.83
2018-12-29T08:28:50.721Z,21.23
2018-12-29T08:33:51.812Z,19.20
2018-12-29T08:38:52.892Z,20.37
2018-12-29T08:43:53.983Z,20.47
2018-12-29T08:48:55.110Z,25.68
2018-12-29T08:53:56.204Z,20.83
2018-12-29T08:58:57.306Z,19.07
2018-12-29T09:03:58.443Z,19.40
2018-12-29T09:08:59.536Z,18.63
2018-12-29T09:14:00.653Z,20.03
2018-12-29T09:19:01.864Z,23.00
2018-12-29T09:24:02.966Z,19.50
2018-12-29T09:29:04.063Z,20.20
2018-12-29T09:34:05.160Z,18.87
2018-12-29T09:39:06.447Z,21.23
2018-12-29T09:44:07.555Z,20.70
2018-12-29T09:49:08.674Z,19.80
2018-12-29T09:54:09.790Z,17.97
2018-12-29T09:59:10.871Z,18.93
2018-12-29T10:04:11.996Z,20.70
2018-12-29T10:09:13.097Z,24.13
2018-12-29T10:14:14.201Z,27.17
2018-12-29T10:19:15.311Z,18.60
2018-12-29T10:24:16.403Z,18.27
2018-12-29T10:29:17.698Z,17.97
2018-12-29T10:34:18.812Z,17.40
2018-12-29T10:39:20.205Z,18.00
2018-12-29T10:44:21.606Z,19.37
2018-12-29T10:49:22.810Z,20.80
2018-12-29T10:54:23.906Z,19.33
2018-12-29T10:59:24.997Z,19.47
2018-12-29T11:04:26.129Z,20.50
2018-12-29T11:09:27.244Z,19.47
2018-12-29T11:14:29.278Z,19.23
2018-12-29T11:19:30.399Z,19.77
2018-12-29T11:24:31.602Z,19.93
2018-12-29T11:29:32.696Z,20.13
2018-12-29T11:34:33.786Z,19.83
2018-12-29T11:39:34.889Z,19.43
2018-12-29T11:44:35.995Z,19.27
2018-12-29T11:49:37.145Z,19.17
2018-12-29T11:54:38.247Z,20.40
2018-12-29T11:59:39.449Z,19.97
2018-12-29T12:04:40.567Z,19.77
2018-12-29T12:09:41.760Z,20.37
2018-12-29T12:14:42.854Z,21.53
2018-12-29T12:19:43.963Z,21.57
2018-12-29T12:24:45.066Z,21.57
2018-12-29T12:29:46.278Z,22.13
2018-12-29T12:34:47.487Z,22.90
2018-12-29T12:39:48.590Z,22.17
2018-12-29T12:44:49.797Z,23.40
2018-12-29T12:49:51.035Z,23.67
2018-12-29T12:54:52.130Z,26.13
2018-12-29T12:59:53.293Z,23.37
2018-12-29T13:04:54.769Z,24.53
2018-12-29T13:09:55.879Z,22.80
2018-12-29T13:14:56.959Z,23.77
2018-12-29T13:19:58.187Z,23.23
2018-12-29T13:24:59.276Z,22.93
2018-12-29T13:30:00.396Z,21.73
2018-12-29T13:35:01.510Z,21.67
2018-12-29T13:40:05.421Z,21.10
2018-12-29T13:45:08.447Z,22.47
2018-12-29T13:50:09.607Z,24.33
2018-12-29T13:55:10.821Z,24.13
2018-12-29T14:00:11.920Z,25.43
2018-12-29T14:05:14.367Z,24.20
2018-12-29T14:10:15.780Z,24.00
2018-12-29T14:15:16.986Z,24.63
2018-12-29T14:20:18.588Z,40.30
2018-12-29T14:25:19.684Z,41.20
2018-12-29T14:30:20.788Z,37.13
2018-12-29T14:35:22.000Z,34.33
2018-12-29T14:40:23.328Z,36.50
2018-12-29T14:45:24.430Z,34.77
2018-12-29T14:50:25.578Z,36.40
2018-12-29T14:55:26.787Z,27.20
2018-12-29T15:00:27.888Z,26.20
2018-12-29T15:05:29.148Z,25.50
2018-12-29T15:10:30.257Z,25.80
2018-12-29T15:15:31.464Z,24.90
2018-12-29T15:20:32.676Z,22.80
2018-12-29T15:25:34.152Z,24.77
2018-12-29T15:30:35.278Z,24.27
2018-12-29T15:35:36.375Z,32.15
2018-12-29T15:40:37.776Z,28.50
2018-12-29T15:45:38.884Z,26.47
2018-12-29T15:50:40.108Z,26.00
2018-12-29T15:55:41.609Z,28.27
2018-12-29T16:00:43.149Z,30.67
2018-12-29T16:05:44.487Z,33.67
2018-12-29T16:10:45.680Z,29.50
2018-12-29T16:15:46.782Z,30.27
2018-12-29T16:20:53.577Z,31.20
2018-12-29T16:26:12.761Z,31.17
2018-12-29T16:31:13.879Z,32.33
2018-12-29T16:36:14.975Z,36.77
2018-12-29T16:41:16.069Z,35.87
2018-12-29T16:46:17.267Z,36.80
2018-12-29T16:51:18.387Z,34.63
2018-12-29T16:56:19.881Z,36.90
2018-12-29T17:01:21.071Z,37.23
2018-12-29T17:06:22.603Z,42.63
2018-12-29T17:11:23.815Z,35.87
2018-12-29T17:16:25.234Z,31.63
2018-12-29T17:21:26.491Z,35.63
2018-12-29T17:26:27.603Z,34.20
2018-12-29T17:31:28.747Z,35.97
2018-12-29T17:36:29.938Z,34.47
2018-12-29T17:41:31.139Z,40.70
2018-12-29T17:46:32.337Z,46.13
2018-12-29T17:51:33.508Z,28.83
2018-12-29T17:56:34.742Z,27.30
2018-12-29T18:01:35.957Z,18.93
2018-12-29T18:06:37.085Z,14.90
2018-12-29T18:11:38.289Z,14.83
2018-12-29T18:16:39.392Z,15.83
2018-12-29T18:21:40.807Z,16.13
2018-12-29T18:26:42.013Z,19.03
2018-12-29T18:31:43.440Z,21.90
2018-12-29T18:36:44.553Z,22.87
2018-12-29T18:41:45.761Z,24.90
2018-12-29T18:46:47.366Z,27.73
2018-12-29T18:51:48.581Z,19.67
2018-12-29T18:56:49.787Z,18.23
2018-12-29T19:01:57.617Z,15.53
2018-12-29T19:06:56.371Z,14.57
2018-12-29T19:11:57.583Z,13.90
2018-12-29T19:16:58.775Z,12.30
2018-12-29T19:22:00.318Z,14.77
2018-12-29T19:27:01.500Z,17.27
2018-12-29T19:32:02.788Z,16.43
2018-12-29T19:37:04.261Z,18.17
2018-12-29T19:42:05.756Z,17.60
2018-12-29T19:47:07.396Z,16.30
2018-12-29T19:52:08.880Z,18.27
2018-12-29T19:57:10.081Z,18.10
2018-12-29T20:02:11.491Z,16.93
2018-12-29T20:07:12.611Z,17.07
2018-12-29T20:12:14.244Z,15.43
2018-12-29T20:17:15.481Z,16.47
2018-12-29T20:22:16.666Z,16.53
2018-12-29T20:27:17.784Z,13.67
2018-12-29T20:32:18.928Z,12.70
2018-12-29T20:37:20.044Z,11.10
2018-12-29T20:42:21.357Z,11.77
2018-12-29T20:47:22.568Z,9.13
2018-12-29T20:52:23.789Z,9.60
2018-12-29T20:57:25.010Z,8.43
2018-12-29T21:02:26.238Z,7.67
2018-12-29T21:07:27.380Z,8.77
2018-12-29T21:12:28.490Z,11.93
2018-12-29T21:17:29.691Z,10.50
2018-12-29T21:22:31.111Z,11.80
2018-12-29T21:27:32.287Z,9.83
2018-12-29T21:32:33.756Z,8.93
2018-12-29T21:37:34.863Z,9.40
2018-12-29T21:42:35.972Z,9.50
2018-12-29T21:47:37.082Z,10.70
2018-12-29T21:52:38.320Z,9.10
2018-12-29T21:57:39.488Z,5.77
2018-12-29T22:02:40.587Z,4.30
2018-12-29T22:07:41.714Z,4.73
2018-12-29T22:12:42.887Z,4.70
2018-12-29T22:17:44.092Z,5.23
2018-12-29T22:22:45.493Z,6.03
2018-12-29T22:27:46.599Z,5.17
2018-12-29T22:32:47.878Z,5.00
2018-12-29T22:37:49.108Z,5.83
2018-12-29T22:42:50.322Z,5.70
2018-12-29T22:47:51.523Z,4.90
2018-12-29T22:52:52.711Z,4.30
2018-12-29T22:57:54.116Z,4.20
2018-12-29T23:02:55.313Z,3.97
2018-12-29T23:07:56.848Z,6.73
2018-12-29T23:12:57.969Z,5.17
2018-12-29T23:17:59.173Z,5.90
2018-12-29T23:23:00.278Z,4.60
2018-12-29T23:28:01.591Z,6.73
2018-12-29T23:33:02.714Z,4.30
2018-12-29T23:38:03.945Z,4.30
2018-12-29T23:43:05.132Z,4.90
2018-12-29T23:48:06.745Z,4.43
2018-12-29T23:53:07.945Z,4.27
2018-12-29T23:58:09.622Z,3.63
